Time;durP1;ratioP1;P1;durP2;ratioP2;P2;SDS_P1;SDS_P2;PMS_P1;PMS_P2;Temp;Humidity;BMP_temperature;BMP_pressure;BME280_temperature;BME280_humidity;BME280_pressure;Samples;Min_cycle;Max_cycle;Signal;HPM_P1;HPM_P2
2022/07/28 00:01:05;;;;;;;;;;;16.90;92.80;;;;;;4987505;28;19925;-85
2022/07/28 00:03:34;;;;;;;;;;;16.90;93.00;;;;;;5007394;28;19929;-86
2022/07/28 00:06:02;;;;;;;;;;;16.90;93.20;;;;;;5016560;28;19926;-85
2022/07/28 00:08:31;;;;;;;;;;;16.90;93.30;;;;;;5017424;28;19937;-88
2022/07/28 00:10:59;;;;;;;;;;;16.90;93.10;;;;;;5008547;28;19937;-88
2022/07/28 00:13:26;;;;;;;;;;;16.90;93.30;;;;;;5012746;28;19925;-85
2022/07/28 00:15:54;;;;;;;;;;;16.80;93.30;;;;;;5010636;28;20020;-84
2022/07/28 00:18:21;;;;;;;;;;;16.80;93.10;;;;;;5010665;28;19931;-85
2022/07/28 00:20:49;;;;;;;;;;;16.80;93.20;;;;;;5024286;28;19925;-84
2022/07/28 00:23:16;;;;;;;;;;;16.80;93.60;;;;;;5029793;28;19940;-84
2022/07/28 00:25:44;;;;;;;;;;;16.70;93.50;;;;;;5031355;28;19925;-86
2022/07/28 00:28:11;;;;;;;;;;;16.70;93.70;;;;;;5025586;28;20009;-87
2022/07/28 00:30:39;;;;;;;;;;;16.70;93.80;;;;;;5006535;28;19930;-86
2022/07/28 00:33:07;;;;;;;;;;;16.70;93.80;;;;;;5026697;28;19925;-88
2022/07/28 00:35:34;;;;;;;;;;;16.70;93.60;;;;;;5008563;28;19929;-85
2022/07/28 00:38:02;;;;;;;;;;;16.60;93.80;;;;;;4992099;28;20246;-84
2022/07/28 00:43:16;;;;;;;;;;;16.40;93.60;;;;;;5025966;28;19925;-85
2022/07/28 00:45:44;;;;;;;;;;;16.50;93.90;;;;;;5024106;28;19929;-85
2022/07/28 00:48:12;;;;;;;;;;;16.50;94.00;;;;;;5032238;28;19926;-86
2022/07/28 00:50:42;;;;;;;;;;;16.40;93.90;;;;;;5021696;28;19925;-85
2022/07/28 00:53:10;;;;;;;;;;;16.40;94.10;;;;;;5022740;28;19929;-85
2022/07/28 00:55:38;;;;;;;;;;;16.40;94.20;;;;;;5020641;28;19930;-86
2022/07/28 00:58:26;;;;;;;;;;;16.30;94.30;;;;;;5016556;28;19932;-86
2022/07/28 01:00:54;;;;;;;;;;;16.20;94.40;;;;;;5019762;28;19932;-86
2022/07/28 01:03:22;;;;;;;;;;;16.20;94.30;;;;;;5023076;28;20032;-86
2022/07/28 01:05:50;;;;;;;;;;;16.20;94.70;;;;;;5024295;28;19936;-86
2022/07/28 01:08:28;;;;;;;;;;;16.20;94.90;;;;;;4998507;28;19933;-88
2022/07/28 01:11:13;;;;;;;;;;;16.20;95.00;;;;;;5025335;28;19925;-86
2022/07/28 01:14:02;;;;;;;;;;;16.20;95.00;;;;;;5015769;28;19929;-86
2022/07/28 01:16:31;;;;;;;;;;;16.10;95.20;;;;;;4992807;28;19929;-85
2022/07/28 01:19:18;;;;;;;;;;;15.80;95.20;;;;;;5000544;28;19940;-87
2022/07/28 01:21:47;;;;;;;;;;;16.20;95.40;;;;;;5012643;28;19933;-84
2022/07/28 01:24:25;;;;;;;;;;;16.10;95.30;;;;;;5005207;28;20300;-86
2022/07/28 01:27:03;;;;;;;;;;;16.20;95.40;;;;;;5020467;28;19945;-86
2022/07/28 01:29:58;;;;;;;;;;;16.20;95.70;;;;;;5007170;28;19931;-85
2022/07/28 01:32:27;;;;;;;;;;;16.20;95.20;;;;;;5028161;28;19929;-86
2022/07/28 01:34:57;;;;;;;;;;;14.70;95.20;;;;;;5033373;28;19929;-88
2022/07/28 01:37:29;;;;;;;;;;;16.20;95.30;;;;;;5018920;28;19933;-85
2022/07/28 01:39:59;;;;;;;;;;;16.20;95.40;;;;;;5020917;28;19924;-86
2022/07/28 01:42:30;;;;;;;;;;;16.10;95.40;;;;;;5035331;28;19926;-87
2022/07/28 01:45:03;;;;;;;;;;;16.20;95.30;;;;;;5018532;28;19925;-86
2022/07/28 01:47:31;;;;;;;;;;;16.20;95.30;;;;;;5036398;28;19916;-85
2022/07/28 01:50:02;;;;;;;;;;;16.20;95.50;;;;;;5031459;28;19929;-87
2022/07/28 01:52:30;;;;;;;;;;;16.00;95.40;;;;;;5007385;28;19920;-85
2022/07/28 01:54:59;;;;;;;;;;;16.20;95.60;;;;;;5035974;28;19913;-89
2022/07/28 01:57:28;;;;;;;;;;;16.20;95.70;;;;;;5036297;28;19913;-88
2022/07/28 01:59:57;;;;;;;;;;;16.20;95.80;;;;;;5018824;28;19934;-86
2022/07/28 02:02:27;;;;;;;;;;;16.20;95.80;;;;;;5018276;28;19921;-87
2022/07/28 02:04:56;;;;;;;;;;;16.30;96.00;;;;;;5035600;28;19932;-87
2022/07/28 02:07:25;;;;;;;;;;;16.20;95.80;;;;;;5018997;28;19936;-85
2022/07/28 02:09:56;;;;;;;;;;;16.00;95.70;;;;;;5014617;28;19925;-85
2022/07/28 02:12:25;;;;;;;;;;;16.30;95.80;;;;;;5014289;28;19926;-85
2022/07/28 02:14:54;;;;;;;;;;;16.30;96.30;;;;;;5011956;28;19926;-85
2022/07/28 02:17:26;;;;;;;;;;;16.30;96.30;;;;;;5013786;28;19914;-87
2022/07/28 02:19:54;;;;;;;;;;;16.20;96.20;;;;;;4999055;28;19932;-86
2022/07/28 02:22:25;;;;;;;;;;;16.40;96.20;;;;;;5015301;28;19921;-85
2022/07/28 02:24:54;;;;;;;;;;;16.30;96.10;;;;;;5015425;28;19932;-86
2022/07/28 02:27:23;;;;;;;;;;;15.90;96.10;;;;;;5015050;28;19921;-85
2022/07/28 02:29:58;;;;;;;;;;;16.40;96.40;;;;;;5032254;28;19910;-87
2022/07/28 02:32:44;;;;;;;;;;;16.40;96.30;;;;;;5005870;28;19930;-86
2022/07/28 02:35:37;;;;;;;;;;;16.50;96.50;;;;;;5015600;28;19929;-85
2022/07/28 02:38:10;;;;;;;;;;;16.40;96.40;;;;;;4989570;28;19933;-86
2022/07/28 02:40:39;;;;;;;;;;;16.40;96.40;;;;;;5013938;28;19936;-88
2022/07/28 02:43:09;;;;;;;;;;;15.60;96.40;;;;;;5014888;28;19913;-85
2022/07/28 02:45:38;;;;;;;;;;;16.40;96.40;;;;;;4998740;28;19934;-86
2022/07/28 02:48:09;;;;;;;;;;;16.40;96.60;;;;;;4999237;28;19913;-87
2022/07/28 02:50:39;;;;;;;;;;;16.40;96.50;;;;;;5010940;28;19929;-85
2022/07/28 02:53:11;;;;;;;;;;;16.80;96.70;;;;;;4999372;28;19913;-84
2022/07/28 02:55:45;;;;;;;;;;;16.50;96.90;;;;;;5012664;28;20439;-85
2022/07/28 02:58:19;;;;;;;;;;;16.50;96.70;;;;;;5015490;28;19920;-85
2022/07/28 03:00:48;;;;;;;;;;;16.50;96.80;;;;;;5012847;28;19930;-87
2022/07/28 03:03:19;;;;;;;;;;;16.30;96.80;;;;;;5010681;28;19940;-84
2022/07/28 03:05:47;;;;;;;;;;;16.50;96.70;;;;;;5029528;28;19933;-85
2022/07/28 03:08:15;;;;;;;;;;;16.50;96.70;;;;;;5031518;28;19932;-85
2022/07/28 03:10:43;;;;;;;;;;;16.50;96.90;;;;;;5034363;28;20101;-87
2022/07/28 03:13:11;;;;;;;;;;;16.50;96.80;;;;;;5035330;28;19914;-85
2022/07/28 03:15:39;;;;;;;;;;;16.50;96.90;;;;;;5040688;28;19913;-86
2022/07/28 03:18:07;;;;;;;;;;;16.50;96.90;;;;;;5035179;28;19913;-87
2022/07/28 03:20:35;;;;;;;;;;;16.50;96.80;;;;;;5031768;28;19924;-85
2022/07/28 03:23:03;;;;;;;;;;;16.50;97.10;;;;;;5001939;28;19914;-89
2022/07/28 03:25:30;;;;;;;;;;;16.50;97.10;;;;;;5037373;28;19922;-85
2022/07/28 03:27:59;;;;;;;;;;;16.50;97.20;;;;;;5035579;28;19920;-86
2022/07/28 03:30:33;;;;;;;;;;;16.50;97.20;;;;;;5035849;28;19922;-85
2022/07/28 03:33:01;;;;;;;;;;;16.50;97.10;;;;;;5035115;28;19929;-86
2022/07/28 03:35:32;;;;;;;;;;;16.50;97.60;;;;;;5017973;28;19935;-86
2022/07/28 03:38:06;;;;;;;;;;;16.50;97.20;;;;;;5003126;28;19929;-88
2022/07/28 03:40:35;;;;;;;;;;;16.50;97.10;;;;;;5018856;28;19929;-85
2022/07/28 03:43:06;;;;;;;;;;;16.50;97.10;;;;;;5019665;28;19947;-85
2022/07/28 03:45:34;;;;;;;;;;;16.50;97.30;;;;;;5019296;28;19913;-86
2022/07/28 03:48:03;;;;;;;;;;;16.50;97.30;;;;;;5035147;28;19940;-84
2022/07/28 03:50:32;;;;;;;;;;;16.50;97.30;;;;;;5035375;28;19920;-90
2022/07/28 03:53:01;;;;;;;;;;;16.50;97.20;;;;;;5029872;28;19920;-85
2022/07/28 03:55:29;;;;;;;;;;;16.40;97.30;;;;;;5021367;28;19926;-87
2022/07/28 03:57:56;;;;;;;;;;;16.40;97.60;;;;;;5038937;28;19953;-87
2022/07/28 04:00:24;;;;;;;;;;;16.40;97.40;;;;;;5039583;28;19913;-86
2022/07/28 04:02:52;;;;;;;;;;;16.40;97.50;;;;;;5020181;28;19918;-87
2022/07/28 04:05:20;;;;;;;;;;;16.40;97.60;;;;;;5031361;28;19909;-87
2022/07/28 04:07:47;;;;;;;;;;;16.20;97.80;;;;;;5018281;28;19936;-87
2022/07/28 04:10:16;;;;;;;;;;;16.40;97.90;;;;;;5018961;28;19918;-86
2022/07/28 04:12:48;;;;;;;;;;;16.30;97.90;;;;;;5019138;28;19913;-86
2022/07/28 04:15:17;;;;;;;;;;;16.30;97.80;;;;;;5024800;28;19940;-85
2022/07/28 04:17:46;;;;;;;;;;;16.30;98.00;;;;;;5034136;28;19918;-86
2022/07/28 04:20:18;;;;;;;;;;;16.30;97.80;;;;;;5019086;28;19914;-89
2022/07/28 04:22:47;;;;;;;;;;;16.30;98.00;;;;;;5019234;28;19914;-87
2022/07/28 04:25:20;;;;;;;;;;;16.30;98.10;;;;;;5019596;28;19914;-84
2022/07/28 04:27:48;;;;;;;;;;;17.30;98.20;;;;;;5020200;28;19913;-86
2022/07/28 04:30:18;;;;;;;;;;;16.30;98.00;;;;;;5020412;28;19940;-84
2022/07/28 04:32:46;;;;;;;;;;;16.10;98.10;;;;;;5019529;28;19914;-85
2022/07/28 04:35:17;;;;;;;;;;;16.20;98.10;;;;;;5018809;28;19914;-87
2022/07/28 04:37:49;;;;;;;;;;;16.20;98.30;;;;;;5019866;28;19910;-85
2022/07/28 04:43:52;;;;;;;;;;;16.10;98.40;;;;;;5007445;28;19908;-87
2022/07/28 04:46:23;;;;;;;;;;;16.10;98.70;;;;;;5019329;28;19940;-89
2022/07/28 04:48:54;;;;;;;;;;;16.10;98.50;;;;;;5017807;28;19932;-84
2022/07/28 04:51:22;;;;;;;;;;;16.20;98.50;;;;;;5017191;28;19914;-85
2022/07/28 04:53:52;;;;;;;;;;;16.10;98.50;;;;;;5015239;28;19944;-84
2022/07/28 04:56:19;;;;;;;;;;;16.20;98.50;;;;;;5014872;28;19926;-85
2022/07/28 04:58:50;;;;;;;;;;;15.50;98.30;;;;;;5016760;28;19924;-84
2022/07/28 05:01:22;;;;;;;;;;;16.20;98.50;;;;;;5027467;28;19932;-84
2022/07/28 05:03:53;;;;;;;;;;;16.20;98.50;;;;;;5016547;28;19913;-86
2022/07/28 05:06:22;;;;;;;;;;;16.20;98.50;;;;;;5021455;28;19926;-85
2022/07/28 05:08:49;;;;;;;;;;;16.20;98.50;;;;;;5026604;28;20038;-85
2022/07/28 05:11:17;;;;;;;;;;;16.20;98.50;;;;;;5035270;28;19974;-84
2022/07/28 05:13:46;;;;;;;;;;;16.20;98.60;;;;;;5024899;28;19913;-86
2022/07/28 05:16:13;;;;;;;;;;;16.20;98.60;;;;;;5021095;28;19933;-84
2022/07/28 05:18:43;;;;;;;;;;;16.00;98.50;;;;;;5016717;28;19929;-86
2022/07/28 05:21:14;;;;;;;;;;;16.20;98.50;;;;;;5036072;28;19924;-85
2022/07/28 05:23:49;;;;;;;;;;;16.20;98.60;;;;;;5040143;28;19929;-83
2022/07/28 05:26:17;;;;;;;;;;;16.20;98.50;;;;;;5019157;28;19935;-85
2022/07/28 05:28:48;;;;;;;;;;;16.20;98.80;;;;;;5036274;28;19914;-84
2022/07/28 05:31:17;;;;;;;;;;;16.20;98.60;;;;;;5036099;28;19950;-84
2022/07/28 05:33:46;;;;;;;;;;;16.30;98.60;;;;;;5017902;28;19929;-84
2022/07/28 05:36:20;;;;;;;;;;;16.30;98.60;;;;;;5036178;28;19924;-84
2022/07/28 05:39:17;;;;;;;;;;;16.30;98.70;;;;;;5019617;28;20408;-84
2022/07/28 05:41:46;;;;;;;;;;;16.30;98.60;;;;;;5031878;28;19926;-84
2022/07/28 05:44:13;;;;;;;;;;;16.40;98.70;;;;;;4990448;28;19940;-85
2022/07/28 05:46:42;;;;;;;;;;;16.40;98.70;;;;;;5000774;28;19917;-85
2022/07/28 05:49:12;;;;;;;;;;;16.40;98.80;;;;;;5021791;28;19933;-84
2022/07/28 05:51:39;;;;;;;;;;;16.40;98.70;;;;;;5035606;28;19914;-85
2022/07/28 05:54:10;;;;;;;;;;;16.40;98.80;;;;;;5035302;28;19924;-84
2022/07/28 05:56:53;;;;;;;;;;;16.50;98.80;;;;;;4987785;28;19913;-84
2022/07/28 05:59:21;;;;;;;;;;;16.50;98.70;;;;;;5037049;28;19957;-85
2022/07/28 06:01:51;;;;;;;;;;;15.40;98.60;;;;;;5036099;28;19924;-85
2022/07/28 06:04:46;;;;;;;;;;;16.60;98.80;;;;;;5035757;28;19926;-84
2022/07/28 06:07:13;;;;;;;;;;;16.70;98.80;;;;;;5002907;28;19913;-85
2022/07/28 06:09:42;;;;;;;;;;;16.80;98.60;;;;;;5035963;28;19914;-85
2022/07/28 06:12:11;;;;;;;;;;;17.10;98.60;;;;;;5019872;28;19917;-87
2022/07/28 06:15:08;;;;;;;;;;;17.00;98.60;;;;;;5036226;28;19916;-85
2022/07/28 06:17:37;;;;;;;;;;;17.10;98.30;;;;;;5033468;28;19925;-86
2022/07/28 06:20:05;;;;;;;;;;;17.20;98.10;;;;;;5023703;28;19910;-86
2022/07/28 06:22:40;;;;;;;;;;;17.30;97.90;;;;;;5017988;28;19924;-84
2022/07/28 06:25:27;;;;;;;;;;;17.30;97.70;;;;;;5029996;28;19929;-85
2022/07/28 06:27:57;;;;;;;;;;;17.40;97.60;;;;;;5030287;28;19913;-83
2022/07/28 06:30:30;;;;;;;;;;;17.60;97.60;;;;;;5035826;28;19947;-87
2022/07/28 06:33:00;;;;;;;;;;;17.70;97.40;;;;;;5036188;28;19936;-87
2022/07/28 06:35:27;;;;;;;;;;;17.80;97.20;;;;;;5035975;28;19936;-88
2022/07/28 06:37:55;;;;;;;;;;;17.90;97.10;;;;;;5036041;28;19925;-86
2022/07/28 06:40:23;;;;;;;;;;;18.00;97.00;;;;;;5035734;28;20178;-85
2022/07/28 06:42:51;;;;;;;;;;;18.10;96.60;;;;;;5011706;28;19973;-88
2022/07/28 06:45:24;;;;;;;;;;;17.10;96.00;;;;;;5036652;28;19917;-87
2022/07/28 06:47:52;;;;;;;;;;;18.40;96.20;;;;;;5033969;28;19925;-87
2022/07/28 06:50:22;;;;;;;;;;;18.50;96.20;;;;;;5032778;28;19928;-90
2022/07/28 06:52:54;;;;;;;;;;;18.50;95.70;;;;;;5035267;28;19914;-88
2022/07/28 06:55:22;;;;;;;;;;;18.50;95.60;;;;;;5005189;28;19913;-88
2022/07/28 06:57:52;;;;;;;;;;;18.60;95.50;;;;;;5007150;28;19928;-87
2022/07/28 07:00:19;;;;;;;;;;;18.70;95.50;;;;;;5035919;28;19917;-87
2022/07/28 07:02:48;;;;;;;;;;;19.30;95.20;;;;;;5002161;28;19910;-87
2022/07/28 07:05:20;;;;;;;;;;;18.70;95.20;;;;;;5034528;28;20282;-87
2022/07/28 07:08:19;;;;;;;;;;;18.80;94.80;;;;;;5035290;28;20027;-86
2022/07/28 07:10:49;;;;;;;;;;;18.80;94.90;;;;;;5030035;28;19930;-89
2022/07/28 07:13:19;;;;;;;;;;;18.90;94.60;;;;;;5003087;28;19914;-87
2022/07/28 07:15:53;;;;;;;;;;;18.90;94.60;;;;;;5013450;28;19925;-87
2022/07/28 07:18:22;;;;;;;;;;;18.90;94.30;;;;;;5003022;28;19926;-89
2022/07/28 07:20:53;;;;;;;;;;;19.00;94.30;;;;;;5022861;28;19914;-88
2022/07/28 07:23:20;;;;;;;;;;;19.10;94.30;;;;;;5021985;28;19928;-88
2022/07/28 07:25:48;;;;;;;;;;;19.10;94.10;;;;;;5035796;28;19910;-87
2022/07/28 07:32:00;;;;;;;;;;;19.20;93.80;;;;;;5030307;28;19906;-88
2022/07/28 07:34:32;;;;;;;;;;;19.30;93.60;;;;;;5027541;28;19925;-87
2022/07/28 07:37:00;;;;;;;;;;;19.40;93.30;;;;;;5012088;28;19913;-87
2022/07/28 07:44:08;;;;;;;;;;;19.60;93.00;;;;;;5034754;28;19918;-88
2022/07/28 07:46:47;;;;;;;;;;;19.70;92.00;;;;;;5018341;28;20305;-87
2022/07/28 07:49:27;;;;;;;;;;;19.80;92.70;;;;;;5032323;28;19929;-87
2022/07/28 07:52:17;;;;;;;;;;;19.90;92.20;;;;;;5023818;28;19920;-87
2022/07/28 07:54:44;;;;;;;;;;;20.00;91.50;;;;;;5033952;28;19917;-87
2022/07/28 07:57:40;;;;;;;;;;;20.10;91.70;;;;;;5017417;28;19917;-88
2022/07/28 08:00:15;;;;;;;;;;;20.40;91.00;;;;;;5032473;28;19932;-89
2022/07/28 08:06:44;;;;;;;;;;;20.30;90.20;;;;;;5016945;28;19931;-87
2022/07/28 08:09:16;;;;;;;;;;;20.50;89.70;;;;;;5011582;28;19926;-88
2022/07/28 08:11:46;;;;;;;;;;;20.50;90.60;;;;;;5003106;28;19915;-89
2022/07/28 08:17:41;;;;;;;;;;;20.80;90.00;;;;;;5028354;28;19914;-89
2022/07/28 08:20:39;;;;;;;;;;;20.90;88.50;;;;;;4999921;28;19992;-87
2022/07/28 08:23:11;;;;;;;;;;;21.00;88.00;;;;;;5044202;28;19925;-87
2022/07/28 08:25:43;;;;;;;;;;;21.20;89.20;;;;;;5035955;28;19913;-88
2022/07/28 08:28:14;;;;;;;;;;;21.20;88.20;;;;;;5000791;28;19914;-85
2022/07/28 08:34:56;;;;;;;;;;;21.40;86.20;;;;;;5041790;28;19929;-86
2022/07/28 08:37:47;;;;;;;;;;;21.40;84.20;;;;;;5023095;28;19913;-86
2022/07/28 08:40:43;;;;;;;;;;;21.60;83.50;;;;;;5034833;28;19913;-86
2022/07/28 08:43:31;;;;;;;;;;;21.60;82.40;;;;;;5044262;28;19909;-86
2022/07/28 08:46:10;;;;;;;;;;;21.70;83.40;;;;;;5043920;28;20116;-85
2022/07/28 08:48:42;;;;;;;;;;;21.70;80.50;;;;;;5035099;28;19921;-87
2022/07/28 08:51:20;;;;;;;;;;;21.80;81.50;;;;;;5003177;28;20403;-86
2022/07/28 08:53:48;;;;;;;;;;;21.90;79.50;;;;;;5035184;28;19925;-85
2022/07/28 08:56:17;;;;;;;;;;;21.90;79.60;;;;;;5016653;28;19925;-85
2022/07/28 08:58:46;;;;;;;;;;;21.90;79.70;;;;;;5038457;28;19940;-86
2022/07/28 09:01:15;;;;;;;;;;;22.00;80.20;;;;;;5038794;28;19929;-85
2022/07/28 09:03:46;;;;;;;;;;;22.00;78.80;;;;;;5039567;28;19925;-84
2022/07/28 09:10:29;;;;;;;;;;;22.00;76.70;;;;;;4989460;28;19926;-86
2022/07/28 09:12:57;;;;;;;;;;;22.10;78.60;;;;;;4986465;28;19933;-85
2022/07/28 09:15:24;;;;;;;;;;;22.20;76.50;;;;;;5003570;28;19936;-85
2022/07/28 09:17:52;;;;;;;;;;;22.20;75.90;;;;;;5003272;28;19930;-86
2022/07/28 09:20:21;;;;;;;;;;;22.30;75.70;;;;;;5004075;28;19930;-85
2022/07/28 09:23:01;;;;;;;;;;;22.30;75.60;;;;;;4990418;28;20288;-86
2022/07/28 09:26:04;;;;;;;;;;;22.40;75.00;;;;;;5003535;28;20235;-86
2022/07/28 09:32:03;;;;;;;;;;;22.80;74.30;;;;;;4988048;28;19933;-84
2022/07/28 09:34:44;;;;;;;;;;;22.90;75.40;;;;;;5006660;28;19926;-85
2022/07/28 09:37:38;;;;;;;;;;;23.00;74.80;;;;;;4993703;28;19934;-87
2022/07/28 09:40:10;;;;;;;;;;;23.00;73.30;;;;;;4987543;28;19934;-86
2022/07/28 09:42:48;;;;;;;;;;;23.10;74.00;;;;;;4992066;28;19933;-87
2022/07/28 09:45:48;;;;;;;;;;;23.10;73.80;;;;;;4980783;28;19926;-87
2022/07/28 09:48:16;;;;;;;;;;;23.20;72.70;;;;;;5004472;28;19926;-87
2022/07/28 09:50:45;;;;;;;;;;;23.30;72.90;;;;;;4983708;28;19926;-85
2022/07/28 09:53:21;;;;;;;;;;;23.40;73.10;;;;;;5002509;28;19934;-86
2022/07/28 09:56:03;;;;;;;;;;;23.40;72.50;;;;;;4962521;28;19926;-85
2022/07/28 09:58:32;;;;;;;;;;;24.50;74.30;;;;;;5000476;28;19930;-86
2022/07/28 10:01:20;;;;;;;;;;;23.90;73.10;;;;;;4997485;28;19926;-85
2022/07/28 10:03:53;;;;;;;;;;;23.30;72.10;;;;;;4988933;28;19927;-85
2022/07/28 10:06:45;;;;;;;;;;;23.30;72.40;;;;;;4992551;28;19927;-86
2022/07/28 10:09:24;;;;;;;;;;;23.30;71.30;;;;;;4979201;28;19937;-86
2022/07/28 10:11:52;;;;;;;;;;;23.40;72.50;;;;;;4984573;28;19930;-87
2022/07/28 10:14:31;;;;;;;;;;;23.40;72.00;;;;;;4982682;28;19934;-88
2022/07/28 10:17:01;;;;;;;;;;;23.40;71.30;;;;;;4983506;28;20301;-86
2022/07/28 10:19:32;;;;;;;;;;;23.50;71.20;;;;;;4999791;28;19926;-86
2022/07/28 10:22:07;;;;;;;;;;;23.50;72.00;;;;;;4987951;28;19941;-85
2022/07/28 10:24:51;;;;;;;;;;;23.50;73.10;;;;;;4989022;28;19930;-86
2022/07/28 10:27:29;;;;;;;;;;;23.60;73.30;;;;;;4986653;28;19944;-86
2022/07/28 10:30:01;;;;;;;;;;;23.60;73.60;;;;;;4984293;28;19930;-84
2022/07/28 10:32:34;;;;;;;;;;;24.00;74.30;;;;;;4984648;28;19926;-85
2022/07/28 10:35:13;;;;;;;;;;;23.70;74.20;;;;;;4985863;28;19926;-84
2022/07/28 10:37:53;;;;;;;;;;;23.80;73.00;;;;;;4985516;28;19930;-86
2022/07/28 10:40:28;;;;;;;;;;;23.90;73.80;;;;;;4997056;28;19926;-88
2022/07/28 10:43:09;;;;;;;;;;;24.00;73.50;;;;;;4998967;28;20313;-86
2022/07/28 10:46:05;;;;;;;;;;;25.00;73.30;;;;;;4997633;28;19930;-87
2022/07/28 10:48:43;;;;;;;;;;;24.10;73.30;;;;;;4982322;28;19941;-88
2022/07/28 10:51:15;;;;;;;;;;;24.30;73.10;;;;;;4983891;28;19934;-87
2022/07/28 10:54:05;;;;;;;;;;;24.20;72.10;;;;;;4984495;28;19941;-86
2022/07/28 10:56:58;;;;;;;;;;;24.30;71.70;;;;;;4997027;28;19926;-86
2022/07/28 11:02:45;;;;;;;;;;;24.40;72.60;;;;;;4981776;28;20538;-87
2022/07/28 11:05:27;;;;;;;;;;;24.30;72.60;;;;;;4976320;28;20469;-87
2022/07/28 11:08:00;;;;;;;;;;;24.30;72.20;;;;;;5003335;28;19928;-85
2022/07/28 11:10:42;;;;;;;;;;;24.30;73.80;;;;;;5026374;28;19932;-88
2022/07/28 11:13:39;;;;;;;;;;;24.20;73.60;;;;;;5010044;28;19929;-85
2022/07/28 11:16:23;;;;;;;;;;;24.30;72.70;;;;;;5021124;28;19925;-85
2022/07/28 11:19:06;;;;;;;;;;;24.40;72.90;;;;;;5007157;28;19925;-84
2022/07/28 11:25:08;;;;;;;;;;;24.60;72.60;;;;;;5021571;28;19929;-85
2022/07/28 11:27:53;;;;;;;;;;;24.70;73.20;;;;;;5009625;28;19926;-85
2022/07/28 11:30:27;;;;;;;;;;;24.80;73.70;;;;;;5003296;28;20057;-84
2022/07/28 11:32:56;;;;;;;;;;;24.80;73.90;;;;;;5021342;28;19987;-84
2022/07/28 11:35:25;;;;;;;;;;;24.60;75.40;;;;;;4984344;28;19925;-85
2022/07/28 11:38:02;;;;;;;;;;;24.30;76.10;;;;;;5023719;28;19921;-85
2022/07/28 11:40:37;;;;;;;;;;;24.10;76.80;;;;;;5026492;28;19925;-87
2022/07/28 11:43:23;;;;;;;;;;;23.90;77.00;;;;;;5008864;28;19932;-83
2022/07/28 11:46:04;;;;;;;;;;;23.80;77.50;;;;;;5019575;28;19937;-85
2022/07/28 11:49:09;;;;;;;;;;;23.80;77.80;;;;;;5022099;28;19925;-85
2022/07/28 11:52:05;;;;;;;;;;;23.70;77.60;;;;;;5002494;28;19929;-85
2022/07/28 11:59:02;;;;;;;;;;;23.70;78.10;;;;;;5041408;28;19914;-87
2022/07/28 12:01:34;;;;;;;;;;;23.60;78.80;;;;;;5036570;28;19916;-86
2022/07/28 12:04:14;;;;;;;;;;;23.50;79.20;;;;;;5018979;28;19947;-87
2022/07/28 12:06:45;;;;;;;;;;;23.50;79.20;;;;;;5031527;28;19932;-86
2022/07/28 12:09:31;;;;;;;;;;;23.70;80.30;;;;;;5028787;28;19930;-85
2022/07/28 12:12:09;;;;;;;;;;;23.20;80.30;;;;;;5021480;28;19929;-91
2022/07/28 12:14:38;;;;;;;;;;;23.30;80.80;;;;;;5024321;28;19932;-87
2022/07/28 12:17:09;;;;;;;;;;;23.50;79.60;;;;;;5005876;28;19930;-86
2022/07/28 12:19:40;;;;;;;;;;;23.70;78.50;;;;;;5005259;28;19929;-89
2022/07/28 12:22:09;;;;;;;;;;;23.80;78.70;;;;;;5007454;28;19925;-87
2022/07/28 12:24:43;;;;;;;;;;;24.10;78.40;;;;;;5006980;28;19925;-92
2022/07/28 12:27:13;;;;;;;;;;;24.30;77.60;;;;;;5013526;28;19932;-86
2022/07/28 12:29:54;;;;;;;;;;;24.30;76.90;;;;;;5010891;28;20381;-87
2022/07/28 12:32:34;;;;;;;;;;;24.40;77.10;;;;;;5015993;28;20005;-90
2022/07/28 12:35:14;;;;;;;;;;;24.50;76.80;;;;;;4975301;28;19926;-87
2022/07/28 12:37:46;;;;;;;;;;;24.60;76.10;;;;;;5006639;28;19965;-90
2022/07/28 12:40:21;;;;;;;;;;;24.60;76.10;;;;;;5014477;28;19941;-90
2022/07/28 12:42:55;;;;;;;;;;;24.60;75.90;;;;;;5024830;28;19929;-87
2022/07/28 12:45:31;;;;;;;;;;;24.70;75.80;;;;;;5004869;28;19948;-85
2022/07/28 12:48:07;;;;;;;;;;;24.60;75.40;;;;;;5021783;28;19926;-91
2022/07/28 12:50:36;;;;;;;;;;;24.60;75.60;;;;;;5011322;28;19933;-87
2022/07/28 12:53:08;;;;;;;;;;;24.70;75.70;;;;;;5009981;28;19952;-89
2022/07/28 12:55:44;;;;;;;;;;;24.90;75.70;;;;;;5026499;28;19936;-87
2022/07/28 12:58:26;;;;;;;;;;;25.00;75.70;;;;;;5010987;28;20317;-87
2022/07/28 13:00:55;;;;;;;;;;;25.10;74.50;;;;;;4987155;28;19925;-91
2022/07/28 13:03:25;;;;;;;;;;;25.20;74.80;;;;;;5024186;28;19976;-89
2022/07/28 13:06:08;;;;;;;;;;;25.20;74.60;;;;;;5002626;28;19930;-88
2022/07/28 13:08:50;;;;;;;;;;;25.20;74.20;;;;;;5006833;28;19929;-92
2022/07/28 13:11:28;;;;;;;;;;;25.40;73.60;;;;;;5024075;28;19930;-91
2022/07/28 13:14:17;;;;;;;;;;;25.40;73.20;;;;;;4999926;28;19933;-86
2022/07/28 13:16:56;;;;;;;;;;;25.40;73.80;;;;;;5012754;28;20521;-89
2022/07/28 13:19:25;;;;;;;;;;;25.10;73.10;;;;;;5015743;28;19930;-84
2022/07/28 13:21:56;;;;;;;;;;;25.10;73.40;;;;;;5019617;28;19930;-86
2022/07/28 13:24:31;;;;;;;;;;;25.10;73.20;;;;;;5002885;28;19933;-85
2022/07/28 13:27:05;;;;;;;;;;;25.10;73.00;;;;;;5003676;28;19933;-87
2022/07/28 13:29:35;;;;;;;;;;;25.10;73.10;;;;;;5008480;28;19933;-86
2022/07/28 13:32:05;;;;;;;;;;;25.00;72.80;;;;;;4985474;28;19929;-88
2022/07/28 13:34:42;;;;;;;;;;;25.00;73.40;;;;;;5028809;28;19930;-85
2022/07/28 13:37:13;;;;;;;;;;;25.00;73.40;;;;;;5024974;28;19926;-87
2022/07/28 21:18:30;;;;;;;;;;;18.90;83.70;;;;;;4997102;28;19926;-80
2022/07/28 21:20:59;;;;;;;;;;;18.90;84.30;;;;;;4968989;28;20299;-80
2022/07/28 21:23:27;;;;;;;;;;;18.20;85.20;;;;;;4988541;28;19926;-80
2022/07/28 21:25:59;;;;;;;;;;;18.80;84.40;;;;;;4995913;28;19941;-80
2022/07/28 21:31:14;;;;;;;;;;;18.70;85.20;;;;;;4977303;28;19936;-81
2022/07/28 21:33:44;;;;;;;;;;;18.70;85.60;;;;;;4967239;28;19926;-80
2022/07/28 21:36:14;;;;;;;;;;;18.60;85.30;;;;;;4974171;28;19930;-81
2022/07/28 21:38:42;;;;;;;;;;;18.60;85.50;;;;;;4990354;28;19930;-80
2022/07/28 21:41:36;;;;;;;;;;;17.20;84.70;;;;;;4981246;28;19926;-81
2022/07/28 21:44:07;;;;;;;;;;;18.60;85.50;;;;;;4989261;28;19933;-80
2022/07/28 21:46:35;;;;;;;;;;;18.80;85.90;;;;;;4979324;28;19930;-81
2022/07/28 21:49:04;;;;;;;;;;;16.40;85.00;;;;;;4981509;28;19938;-80
2022/07/28 21:51:32;;;;;;;;;;;17.40;85.70;;;;;;4978336;28;19936;-80
2022/07/28 21:54:00;;;;;;;;;;;18.40;85.90;;;;;;5013421;28;19933;-81
2022/07/28 21:56:28;;;;;;;;;;;18.40;86.80;;;;;;4998100;28;19932;-80
2022/07/28 21:58:57;;;;;;;;;;;18.30;86.50;;;;;;4973166;28;19926;-80
2022/07/28 22:01:25;;;;;;;;;;;18.30;86.40;;;;;;4964640;28;19930;-80
2022/07/28 22:03:53;;;;;;;;;;;18.00;86.80;;;;;;4988749;28;19926;-82
2022/07/28 22:06:22;;;;;;;;;;;18.30;86.50;;;;;;4984508;28;19937;-80
2022/07/28 22:08:52;;;;;;;;;;;18.50;87.40;;;;;;4947332;29;19930;-82
2022/07/28 22:11:21;;;;;;;;;;;18.30;86.00;;;;;;4966934;28;19930;-80
2022/07/28 22:13:49;;;;;;;;;;;18.30;86.90;;;;;;4987156;28;19930;-81
2022/07/28 22:16:17;;;;;;;;;;;18.20;86.30;;;;;;4954691;28;20312;-80
2022/07/28 22:18:45;;;;;;;;;;;18.20;86.90;;;;;;4954231;28;19949;-81
2022/07/28 22:21:13;;;;;;;;;;;18.20;86.80;;;;;;4988584;28;19937;-80
2022/07/28 22:23:41;;;;;;;;;;;18.10;87.10;;;;;;4975326;28;19930;-80
2022/07/28 22:26:09;;;;;;;;;;;18.10;87.30;;;;;;4969158;28;19932;-80
2022/07/28 22:28:37;;;;;;;;;;;18.10;87.20;;;;;;4971500;28;19927;-79
2022/07/28 22:31:08;;;;;;;;;;;18.00;87.40;;;;;;4989057;28;19957;-80
2022/07/28 22:33:37;;;;;;;;;;;18.00;87.50;;;;;;4986861;28;20197;-81
2022/07/28 22:36:07;;;;;;;;;;;17.90;88.10;;;;;;4968160;28;19937;-80
2022/07/28 22:38:36;;;;;;;;;;;17.90;88.30;;;;;;4980001;28;19934;-80
2022/07/28 22:41:04;;;;;;;;;;;17.90;88.60;;;;;;4973685;28;19934;-80
2022/07/28 22:43:33;;;;;;;;;;;17.90;89.40;;;;;;4967615;28;19934;-81
2022/07/28 22:46:01;;;;;;;;;;;17.80;88.70;;;;;;4986170;28;19929;-81
2022/07/28 22:48:28;;;;;;;;;;;17.80;88.80;;;;;;4967928;28;19926;-80
2022/07/28 22:50:57;;;;;;;;;;;17.80;89.30;;;;;;4992215;28;19945;-80
2022/07/28 22:53:25;;;;;;;;;;;17.80;88.70;;;;;;4972210;28;19941;-80
2022/07/28 22:55:53;;;;;;;;;;;17.80;90.00;;;;;;4978307;28;19936;-80
2022/07/28 22:58:39;;;;;;;;;;;16.30;90.10;;;;;;4947843;28;19929;-80
2022/07/28 23:01:07;;;;;;;;;;;17.80;89.50;;;;;;4975710;28;20320;-80
2022/07/28 23:03:35;;;;;;;;;;;17.80;89.70;;;;;;4979700;28;19934;-80
2022/07/28 23:06:04;;;;;;;;;;;17.80;89.60;;;;;;4975124;28;19920;-80
2022/07/28 23:08:32;;;;;;;;;;;17.10;89.00;;;;;;4970835;28;19930;-80
2022/07/28 23:11:00;;;;;;;;;;;17.90;89.20;;;;;;4969395;28;20365;-79
2022/07/28 23:13:28;;;;;;;;;;;18.10;89.40;;;;;;4967661;28;19933;-79
2022/07/28 23:15:56;;;;;;;;;;;17.70;89.50;;;;;;4970306;28;20514;-80